Time;durP1;ratioP1;P1;durP2;ratioP2;P2;SDS_P1;SDS_P2;PMS_P1;PMS_P2;Temp;Humidity;BMP_temperature;BMP_pressure;BME280_temperature;BME280_humidity;BME280_pressure;Samples;Min_cycle;Max_cycle;Signal;HPM_P1;HPM_P2
2023/06/19 00:01:54;;;;;;;;;9.00;5.00;;;;;-143.57;100.00;65101.44;5099456;27;45266;-44
2023/06/19 00:04:19;;;;;;;;;5.25;5.25;;;;;-143.57;100.00;65101.44;5099080;27;46120;-44
2023/06/19 00:06:45;;;;;;;;;6.25;4.50;;;;;-143.57;100.00;65101.44;5099054;27;45399;-44
2023/06/19 00:09:10;;;;;;;;;6.25;6.25;;;;;-143.57;100.00;65101.44;5098650;27;45308;-43
2023/06/19 00:11:36;;;;;;;;;5.00;5.00;;;;;-143.57;100.00;65101.44;5099366;27;45193;-45
2023/06/19 00:14:01;;;;;;;;;6.00;6.00;;;;;-143.57;100.00;65101.44;5098863;27;46122;-42
2023/06/19 00:16:27;;;;;;;;;5.00;5.00;;;;;-143.57;100.00;65101.44;5099170;27;45222;-44
2023/06/19 00:18:55;;;;;;;;;10.75;6.50;;;;;-143.57;100.00;65101.44;5099123;27;45201;-42
2023/06/19 00:21:25;;;;;;;;;9.00;8.75;;;;;-143.57;100.00;65101.44;5099166;27;45380;-41
2023/06/19 00:23:52;;;;;;;;;6.25;6.00;;;;;-143.57;100.00;65101.44;5098893;27;46291;-42
2023/06/19 00:26:17;;;;;;;;;7.50;6.25;;;;;-143.57;100.00;65101.44;5098606;27;45203;-44
2023/06/19 00:28:45;;;;;;;;;6.50;5.25;;;;;-143.57;100.00;65101.44;5099045;27;45250;-46
2023/06/19 00:31:13;;;;;;;;;6.50;6.25;;;;;-143.57;100.00;65101.44;5099353;27;45388;-44
2023/06/19 00:33:39;;;;;;;;;9.00;4.50;;;;;-143.57;100.00;65101.44;5098672;27;47216;-46
2023/06/19 00:36:13;;;;;;;;;7.50;7.50;;;;;-143.57;100.00;65101.44;5080420;27;45345;-41
2023/06/19 00:38:39;;;;;;;;;7.00;6.00;;;;;-143.57;100.00;65101.44;5098601;27;45781;-43
2023/06/19 00:41:05;;;;;;;;;11.50;7.00;;;;;-143.57;100.00;65101.44;5098802;27;45271;-43
2023/06/19 00:43:31;;;;;;;;;9.00;7.00;;;;;-143.57;100.00;65101.44;5098183;27;46197;-45
2023/06/19 00:45:58;;;;;;;;;7.50;6.25;;;;;-143.57;100.00;65101.44;5098459;27;45277;-44
2023/06/19 00:48:23;;;;;;;;;8.00;8.00;;;;;-143.57;100.00;65101.44;5098312;27;45418;-43
2023/06/19 00:50:50;;;;;;;;;10.75;9.50;;;;;-143.57;100.00;65101.44;5097410;27;45576;-43
2023/06/19 00:53:17;;;;;;;;;8.25;7.00;;;;;-143.57;100.00;65101.44;5098282;27;46163;-43
2023/06/19 00:55:44;;;;;;;;;7.00;7.00;;;;;-143.57;100.00;65101.44;5098269;27;45380;-43
2023/06/19 00:58:09;;;;;;;;;10.75;7.00;;;;;-143.57;100.00;65101.44;5098082;27;45483;-42
2023/06/19 01:00:35;;;;;;;;;10.00;8.00;;;;;-143.57;100.00;65101.44;5097888;27;45517;-42
2023/06/19 01:03:00;;;;;;;;;7.00;7.00;;;;;-143.57;100.00;65101.44;5079959;27;45328;-43
2023/06/19 01:05:25;;;;;;;;;8.75;8.75;;;;;-143.57;100.00;65101.44;5098211;27;45478;-43
2023/06/19 01:08:09;;;;;;;;;7.75;7.75;;;;;-143.57;100.00;65101.44;5098247;27;45217;-45
2023/06/19 01:10:43;;;;;;;;;10.00;8.25;;;;;-143.57;100.00;65101.44;5097144;27;45234;-43
2023/06/19 01:13:18;;;;;;;;;10.00;8.00;;;;;-143.57;100.00;65101.44;5097393;27;45619;-42
2023/06/19 01:15:43;;;;;;;;;8.00;7.75;;;;;-143.57;100.00;65101.44;5098085;27;45515;-42
2023/06/19 01:18:12;;;;;;;;;9.25;8.25;;;;;-143.57;100.00;65101.44;5098254;27;45430;-42
2023/06/19 01:20:38;;;;;;;;;9.25;7.25;;;;;-143.57;100.00;65101.44;5098345;27;45220;-42
2023/06/19 01:23:11;;;;;;;;;9.75;8.00;;;;;-143.57;100.00;65101.44;5097066;27;46058;-42
2023/06/19 01:25:36;;;;;;;;;9.50;8.25;;;;;-143.57;100.00;65101.44;5097996;27;45438;-45
2023/06/19 01:28:05;;;;;;;;;14.00;9.00;;;;;-143.57;100.00;65101.44;5097814;27;45597;-44
2023/06/19 01:30:32;;;;;;;;;14.00;8.00;;;;;-143.57;100.00;65101.44;5098015;27;45414;-44
2023/06/19 01:33:03;;;;;;;;;13.25;10.25;;;;;-143.57;100.00;65101.44;5097300;27;47293;-43
2023/06/19 01:35:35;;;;;;;;;9.75;8.25;;;;;-143.57;100.00;65101.44;5097642;27;45262;-43
2023/06/19 01:38:02;;;;;;;;;13.00;8.75;;;;;-143.57;100.00;65101.44;5097866;27;45324;-42
2023/06/19 01:40:31;;;;;;;;;9.00;9.00;;;;;-143.57;100.00;65101.44;5098079;27;45436;-44
2023/06/19 01:42:59;;;;;;;;;8.50;8.00;;;;;-143.57;100.00;65101.44;5096100;27;46196;-44
2023/06/19 01:45:25;;;;;;;;;10.75;10.25;;;;;-143.57;100.00;65101.44;5089041;27;45450;-43
2023/06/19 01:47:50;;;;;;;;;8.25;7.00;;;;;-143.57;100.00;65101.44;5097958;27;45415;-43
2023/06/19 01:50:16;;;;;;;;;17.33;14.00;;;;;-143.57;100.00;65101.44;5097979;27;45374;-43
2023/06/19 01:52:41;;;;;;;;;14.00;14.00;;;;;-143.57;100.00;65101.44;5097396;27;47014;-43
2023/06/19 01:55:07;;;;;;;;;14.33;14.33;;;;;-143.57;100.00;65101.44;5097472;27;45229;-44
2023/06/19 01:57:33;;;;;;;;;11.25;11.25;;;;;-143.57;100.00;65101.44;5097627;27;45220;-41
2023/06/19 01:59:58;;;;;;;;;19.00;14.67;;;;;-143.57;100.00;65101.44;5097723;27;45594;-42
2023/06/19 02:02:23;;;;;;;;;19.00;17.33;;;;;-143.57;100.00;65101.44;5097375;27;45385;-43
2023/06/19 02:04:49;;;;;;;;;13.00;10.75;;;;;-143.57;100.00;65101.44;5078889;27;48200;-44
2023/06/19 02:07:14;;;;;;;;;14.67;12.67;;;;;-143.57;100.00;65101.44;5097326;27;45501;-45
2023/06/19 02:09:41;;;;;;;;;11.67;11.67;;;;;-143.57;100.00;65101.44;5097743;27;45434;-44
2023/06/19 02:12:07;;;;;;;;;12.00;12.00;;;;;-143.57;100.00;65101.44;5097457;27;47165;-44
2023/06/19 02:14:32;;;;;;;;;18.67;14.67;;;;;-143.57;100.00;65101.44;5097162;27;45439;-44
2023/06/19 02:16:58;;;;;;;;;11.33;8.67;;;;;-143.57;100.00;65101.44;5097692;27;45237;-43
2023/06/19 02:19:23;;;;;;;;;12.33;11.00;;;;;-143.57;100.00;65101.44;5097308;27;45583;-44
2023/06/19 02:21:48;;;;;;;;;13.67;13.00;;;;;-143.57;100.00;65101.44;5097044;27;51573;-45
2023/06/19 02:24:13;;;;;;;;;14.00;10.00;;;;;-143.57;100.00;65101.44;5100759;27;45400;-44
2023/06/19 02:26:39;;;;;;;;;16.67;13.67;;;;;-143.57;100.00;65101.44;5100452;27;45373;-43
2023/06/19 02:29:04;;;;;;;;;14.33;11.67;;;;;-143.57;100.00;65101.44;5100896;27;45545;-44
2023/06/19 02:31:30;;;;;;;;;14.67;11.00;;;;;-143.57;100.00;65101.44;5100432;27;46080;-45
2023/06/19 02:33:55;;;;;;;;;14.00;12.00;;;;;-143.57;100.00;65101.44;5100505;27;45331;-46
2023/06/19 02:36:20;;;;;;;;;16.33;12.33;;;;;-143.57;100.00;65101.44;5100606;27;45319;-45
2023/06/19 02:38:46;;;;;;;;;12.33;10.00;;;;;-143.57;100.00;65101.44;5098807;27;45239;-44
2023/06/19 02:41:12;;;;;;;;;14.67;12.00;;;;;-143.57;100.00;65101.44;5101033;27;46168;-43
2023/06/19 02:43:38;;;;;;;;;11.00;8.33;;;;;-143.57;100.00;65101.44;5101277;27;45433;-44
2023/06/19 02:46:04;;;;;;;;;13.67;12.33;;;;;-143.57;100.00;65101.44;5100553;27;45430;-43
2023/06/19 02:48:29;;;;;;;;;16.33;13.00;;;;;-143.57;100.00;65101.44;5100680;27;45409;-43
2023/06/19 02:50:54;;;;;;;;;12.67;10.33;;;;;-143.57;100.00;65101.44;5100203;27;46079;-43
2023/06/19 02:53:20;;;;;;;;;13.33;11.00;;;;;-143.57;100.00;65101.44;5100172;27;45336;-44
2023/06/19 02:55:45;;;;;;;;;16.67;11.00;;;;;-143.57;100.00;65101.44;5099549;27;45490;-42
2023/06/19 02:58:10;;;;;;;;;12.33;11.00;;;;;-143.57;100.00;65101.44;5100506;27;45317;-45
2023/06/19 03:00:36;;;;;;;;;17.33;14.00;;;;;-143.57;100.00;65101.44;5100181;27;45903;-44
2023/06/19 03:03:01;;;;;;;;;17.00;11.33;;;;;-143.57;100.00;65101.44;5100077;27;45279;-43
2023/06/19 03:05:29;;;;;;;;;12.00;7.67;;;;;-143.57;100.00;65101.44;5099166;27;45401;-46
2023/06/19 03:07:54;;;;;;;;;19.00;11.00;;;;;-143.57;100.00;65101.44;5100123;27;45370;-43
2023/06/19 03:10:20;;;;;;;;;15.33;11.00;;;;;-143.57;100.00;65101.44;5099783;27;48187;-44
2023/06/19 03:12:45;;;;;;;;;12.33;11.67;;;;;-143.57;100.00;65101.44;5100141;27;45301;-44
2023/06/19 03:15:10;;;;;;;;;15.67;11.00;;;;;-143.57;100.00;65101.44;5099452;27;45431;-44
2023/06/19 03:17:36;;;;;;;;;14.00;10.67;;;;;-143.57;100.00;65101.44;5082011;27;45286;-43
2023/06/19 03:20:01;;;;;;;;;11.00;10.00;;;;;-143.57;100.00;65101.44;5099817;27;45365;-43
2023/06/19 03:22:26;;;;;;;;;12.67;12.67;;;;;-143.57;100.00;65101.44;5099768;27;45234;-45
2023/06/19 03:24:52;;;;;;;;;12.33;11.33;;;;;-143.57;100.00;65101.44;5081824;27;45365;-44
2023/06/19 03:27:17;;;;;;;;;11.00;10.00;;;;;-143.57;100.00;65101.44;5099463;27;45202;-43
2023/06/19 03:29:42;;;;;;;;;15.00;12.67;;;;;-143.57;100.00;65101.44;5099590;27;45856;-44
2023/06/19 03:32:08;;;;;;;;;11.67;11.33;;;;;-143.57;100.00;65101.44;5099692;27;45354;-44
2023/06/19 03:34:33;;;;;;;;;16.67;11.67;;;;;-143.57;100.00;65101.44;5099167;27;45174;-44
2023/06/19 03:36:59;;;;;;;;;9.67;9.67;;;;;-143.57;100.00;65101.44;5099980;27;45279;-44
2023/06/19 03:39:24;;;;;;;;;26.67;23.00;;;;;-143.57;100.00;65101.44;5098263;27;45543;-42
2023/06/19 03:41:50;;;;;;;;;20.00;13.33;;;;;-143.57;100.00;65101.44;5099421;27;45344;-42
2023/06/19 03:44:15;;;;;;;;;19.00;16.00;;;;;-143.57;100.00;65101.44;5099570;27;45266;-42
2023/06/19 03:46:40;;;;;;;;;15.67;13.00;;;;;-143.57;100.00;65101.44;5099443;27;45305;-44
2023/06/19 03:49:06;;;;;;;;;14.33;12.33;;;;;-143.57;100.00;65101.44;5080692;27;46016;-45
2023/06/19 03:51:32;;;;;;;;;11.50;10.00;;;;;-143.57;100.00;65101.44;5099231;27;45308;-44
2023/06/19 03:53:58;;;;;;;;;8.75;8.75;;;;;-143.57;100.00;65101.44;5099250;27;45354;-43
2023/06/19 03:56:23;;;;;;;;;17.67;11.00;;;;;-143.57;100.00;65101.44;5099454;27;45363;-42
2023/06/19 03:58:48;;;;;;;;;20.33;14.00;;;;;-143.57;100.00;65101.44;5098983;27;46043;-46
2023/06/19 04:01:14;;;;;;;;;18.33;13.00;;;;;-143.57;100.00;65101.44;5098964;27;45368;-45
2023/06/19 04:03:39;;;;;;;;;13.67;12.33;;;;;-143.57;100.00;65101.44;5099338;27;45411;-44
2023/06/19 04:06:04;;;;;;;;;14.33;14.00;;;;;-143.57;100.00;65101.44;5099296;27;45345;-42
2023/06/19 04:08:30;;;;;;;;;17.67;15.67;;;;;-143.57;100.00;65101.44;5099016;27;45336;-45
2023/06/19 04:10:55;;;;;;;;;14.33;11.33;;;;;-143.57;100.00;65101.44;5098839;27;45310;-43
2023/06/19 04:13:20;;;;;;;;;13.00;13.00;;;;;-143.57;100.00;65101.44;5099133;27;45177;-42
2023/06/19 04:15:46;;;;;;;;;13.00;11.33;;;;;-143.57;100.00;65101.44;5099045;27;45427;-43
2023/06/19 04:18:12;;;;;;;;;14.67;13.00;;;;;-143.57;100.00;65101.44;5098711;27;46788;-42
2023/06/19 04:20:37;;;;;;;;;12.25;12.25;;;;;-143.57;100.00;65101.44;5098665;27;45337;-43
2023/06/19 04:23:03;;;;;;;;;15.67;15.00;;;;;-143.57;100.00;65101.44;5098695;27;45413;-42
2023/06/19 04:25:28;;;;;;;;;20.00;13.67;;;;;-143.57;100.00;65101.44;5098982;27;45166;-45
2023/06/19 04:27:53;;;;;;;;;15.33;13.00;;;;;-143.57;100.00;65101.44;5098397;27;45352;-42
2023/06/19 04:30:20;;;;;;;;;13.00;10.00;;;;;-143.57;100.00;65101.44;5098654;27;45267;-43
2023/06/19 04:32:46;;;;;;;;;13.00;12.00;;;;;-143.57;100.00;65101.44;5098648;27;45444;-43
2023/06/19 04:35:12;;;;;;;;;10.75;10.50;;;;;-143.57;100.00;65101.44;5098531;27;45404;-45
2023/06/19 04:37:37;;;;;;;;;16.25;14.00;;;;;-143.57;100.00;65101.44;5098527;27;45335;-44
2023/06/19 04:40:03;;;;;;;;;13.75;12.75;;;;;-143.57;100.00;65101.44;5097631;27;45429;-43
2023/06/19 04:42:29;;;;;;;;;12.67;12.67;;;;;-143.57;100.00;65101.44;5097513;27;45327;-46
2023/06/19 04:44:56;;;;;;;;;13.33;13.33;;;;;-143.57;100.00;65101.44;5098473;27;45292;-44
2023/06/19 04:47:23;;;;;;;;;13.67;13.67;;;;;-143.57;100.00;65101.44;5096866;27;46248;-43
2023/06/19 04:49:48;;;;;;;;;16.00;13.25;;;;;-143.57;100.00;65101.44;5098480;27;45266;-43
2023/06/19 04:52:14;;;;;;;;;14.33;12.00;;;;;-143.57;100.00;65101.44;5098418;27;45174;-45
2023/06/19 04:54:39;;;;;;;;;13.75;12.25;;;;;-143.57;100.00;65101.44;5098745;27;45330;-42
2023/06/19 04:57:06;;;;;;;;;19.00;15.00;;;;;-143.57;100.00;65101.44;5097857;27;46573;-43
2023/06/19 04:59:31;;;;;;;;;16.00;13.67;;;;;-143.57;100.00;65101.44;5097618;27;45327;-43
2023/06/19 05:01:57;;;;;;;;;15.33;13.00;;;;;-143.57;100.00;65101.44;5097659;27;45433;-41
2023/06/19 05:04:23;;;;;;;;;15.67;11.67;;;;;-143.57;100.00;65101.44;5098044;27;45521;-44
2023/06/19 05:06:49;;;;;;;;;14.75;12.00;;;;;-143.57;100.00;65101.44;5098004;27;46038;-43
2023/06/19 05:09:14;;;;;;;;;13.75;12.50;;;;;-143.57;100.00;65101.44;5097898;27;45431;-43
2023/06/19 05:11:40;;;;;;;;;14.75;13.00;;;;;-143.57;100.00;65101.44;5098054;27;45367;-42
2023/06/19 05:14:06;;;;;;;;;15.75;13.75;;;;;-143.57;100.00;65101.44;5098217;27;45319;-43
2023/06/19 05:16:31;;;;;;;;;15.75;13.50;;;;;-143.57;100.00;65101.44;5097639;27;46162;-43
2023/06/19 05:18:56;;;;;;;;;13.00;10.25;;;;;-143.57;100.00;65101.44;5097983;27;45266;-44
2023/06/19 05:21:22;;;;;;;;;20.67;17.00;;;;;-143.57;100.00;65101.44;5097815;27;45182;-43
2023/06/19 05:23:50;;;;;;;;;16.00;13.00;;;;;-143.57;100.00;65101.44;5098075;27;45888;-43
2023/06/19 05:26:16;;;;;;;;;15.00;12.75;;;;;-143.57;100.00;65101.44;5097490;27;46224;-43
2023/06/19 05:28:41;;;;;;;;;20.00;15.00;;;;;-143.57;100.00;65101.44;5102813;27;45345;-42
2023/06/19 05:31:07;;;;;;;;;17.33;14.00;;;;;-143.57;100.00;65101.44;5099909;27;45359;-42
2023/06/19 05:33:32;;;;;;;;;17.50;14.00;;;;;-143.57;100.00;65101.44;5118708;27;45250;-44
2023/06/19 05:35:57;;;;;;;;;16.67;14.00;;;;;-143.57;100.00;65101.44;5118337;27;45228;-44
2023/06/19 05:38:25;;;;;;;;;16.33;15.33;;;;;-143.57;100.00;65101.44;5118264;27;45429;-43
2023/06/19 05:40:51;;;;;;;;;16.25;11.50;;;;;-143.57;100.00;65101.44;5117874;27;45230;-45
2023/06/19 05:43:18;;;;;;;;;15.50;14.25;;;;;-143.57;100.00;65101.44;5118552;27;45252;-43
2023/06/19 05:45:44;;;;;;;;;14.67;13.00;;;;;-143.57;100.00;65101.44;5117925;27;45570;-43
2023/06/19 05:48:09;;;;;;;;;19.33;16.00;;;;;-143.57;100.00;65101.44;5117955;27;45507;-44
2023/06/19 05:50:34;;;;;;;;;15.33;14.00;;;;;-143.57;100.00;65101.44;5118328;27;45337;-44
2023/06/19 05:53:00;;;;;;;;;20.00;15.67;;;;;-143.57;100.00;65101.44;5118314;27;45489;-44
2023/06/19 05:55:27;;;;;;;;;20.00;20.00;;;;;-143.57;100.00;65101.44;5118221;27;46029;-42
2023/06/19 05:57:52;;;;;;;;;15.50;11.25;;;;;-143.57;100.00;65101.44;5119575;27;45458;-46
2023/06/19 06:00:18;;;;;;;;;15.75;13.00;;;;;-143.57;100.00;65101.44;5121910;27;45335;-43
2023/06/19 06:02:44;;;;;;;;;18.00;16.50;;;;;-143.57;100.00;65101.44;5121515;27;45463;-45
2023/06/19 06:05:10;;;;;;;;;15.25;14.25;;;;;-143.57;100.00;65101.44;5121568;27;47302;-46
2023/06/19 06:07:35;;;;;;;;;15.00;15.00;;;;;-143.57;100.00;65101.44;5102825;27;45376;-44
2023/06/19 06:10:01;;;;;;;;;23.00;14.25;;;;;-143.57;100.00;65101.44;5121895;27;45725;-45
2023/06/19 06:12:26;;;;;;;;;16.00;15.50;;;;;-143.57;100.00;65101.44;5121807;27;45385;-43
2023/06/19 06:14:52;;;;;;;;;19.25;18.75;;;;;-143.57;100.00;65101.44;5121799;27;45402;-45
2023/06/19 06:17:17;;;;;;;;;21.00;19.67;;;;;-143.57;100.00;65101.44;5121491;27;45363;-44
2023/06/19 06:19:42;;;;;;;;;19.25;16.00;;;;;-143.57;100.00;65101.44;5121782;27;45534;-45
2023/06/19 06:22:08;;;;;;;;;22.00;19.25;;;;;-143.57;100.00;65101.44;5121863;27;45358;-46
2023/06/19 06:24:33;;;;;;;;;17.50;16.50;;;;;-143.57;100.00;65101.44;5121654;27;45423;-47
2023/06/19 06:26:58;;;;;;;;;23.00;17.67;;;;;-143.57;100.00;65101.44;5121382;27;45345;-43
2023/06/19 06:29:24;;;;;;;;;22.00;20.25;;;;;-143.57;100.00;65101.44;5122198;27;45438;-44
2023/06/19 06:31:52;;;;;;;;;20.50;20.00;;;;;-143.57;100.00;65101.44;5123134;27;45208;-45
2023/06/19 06:34:18;;;;;;;;;19.25;18.25;;;;;-143.57;100.00;65101.44;5123248;27;46343;-44
2023/06/19 06:36:43;;;;;;;;;23.00;17.25;;;;;-143.57;100.00;65101.44;5121606;27;45321;-43
2023/06/19 06:39:08;;;;;;;;;22.75;19.75;;;;;-143.57;100.00;65101.44;5121781;27;45378;-45
2023/06/19 06:41:34;;;;;;;;;23.00;21.00;;;;;-143.57;100.00;65101.44;5121178;27;45371;-42
2023/06/19 06:44:01;;;;;;;;;20.50;18.75;;;;;-143.57;100.00;65101.44;5121154;27;45396;-40
2023/06/19 06:46:26;;;;;;;;;21.75;21.75;;;;;-143.57;100.00;65101.44;5120979;27;45331;-43
2023/06/19 06:48:51;;;;;;;;;23.00;19.50;;;;;-143.57;100.00;65101.44;5120970;27;45204;-41
2023/06/19 06:51:17;;;;;;;;;17.25;13.75;;;;;-143.57;100.00;65101.44;5105648;27;45897;-43
2023/06/19 06:53:42;;;;;;;;;20.00;16.75;;;;;-143.57;100.00;65101.44;5115338;27;47115;-43
2023/06/19 06:56:08;;;;;;;;;22.25;20.00;;;;;-143.57;100.00;65101.44;5120802;27;45387;-41
2023/06/19 06:58:33;;;;;;;;;23.25;20.75;;;;;-143.57;100.00;65101.44;5114988;27;45285;-42
2023/06/19 07:00:58;;;;;;;;;26.50;19.25;;;;;-143.57;100.00;65101.44;5105467;27;45451;-43
2023/06/19 07:03:24;;;;;;;;;17.00;15.50;;;;;-143.57;100.00;65101.44;5116287;27;46921;-42
2023/06/19 07:05:49;;;;;;;;;20.25;17.00;;;;;-143.57;100.00;65101.44;5116906;27;45264;-43
2023/06/19 07:08:14;;;;;;;;;21.25;19.50;;;;;-143.57;100.00;65101.44;5116489;27;45414;-42
2023/06/19 07:10:40;;;;;;;;;24.50;20.00;;;;;-143.57;100.00;65101.44;5116050;27;45672;-43
2023/06/19 07:13:05;;;;;;;;;21.25;19.00;;;;;-143.57;100.00;65101.44;5096181;27;46175;-43
2023/06/19 07:15:30;;;;;;;;;19.25;18.00;;;;;-143.57;100.00;65101.44;5109442;27;45764;-44
2023/06/19 07:17:56;;;;;;;;;20.25;19.25;;;;;-143.57;100.00;65101.44;5116506;27;45993;-42
2023/06/19 07:20:22;;;;;;;;;15.00;14.50;;;;;-143.57;100.00;65101.44;5114304;27;45521;-42
2023/06/19 07:22:50;;;;;;;;;24.00;20.75;;;;;-143.57;100.00;65101.44;5096547;27;46430;-41
2023/06/19 07:25:16;;;;;;;;;18.40;17.40;;;;;-143.57;100.00;65101.44;5095805;27;45467;-43
2023/06/19 07:27:41;;;;;;;;;21.50;18.50;;;;;-143.57;100.00;65101.44;5096227;27;45419;-42
2023/06/19 07:30:07;;;;;;;;;18.00;16.75;;;;;-143.57;100.00;65101.44;5096135;27;45491;-41
2023/06/19 07:32:33;;;;;;;;;20.80;17.00;;;;;-143.57;100.00;65101.44;5095857;27;46544;-42
2023/06/19 07:34:58;;;;;;;;;20.00;19.75;;;;;-143.57;100.00;65101.44;5103759;27;45559;-43
2023/06/19 07:37:24;;;;;;;;;23.50;19.50;;;;;-143.57;100.00;65101.44;5116344;27;45391;-43
2023/06/19 07:39:50;;;;;;;;;24.50;21.25;;;;;-143.57;100.00;65101.44;5115458;27;45594;-40
2023/06/19 07:42:17;;;;;;;;;21.80;19.00;;;;;-143.57;100.00;65101.44;5105902;27;47335;-43
2023/06/19 07:44:43;;;;;;;;;19.00;17.60;;;;;-143.57;100.00;65101.44;5108797;27;45680;-42
2023/06/19 07:47:09;;;;;;;;;20.80;19.60;;;;;-143.57;100.00;65101.44;5113549;27;45506;-43
2023/06/19 07:49:35;;;;;;;;;20.50;17.00;;;;;-143.57;100.00;65101.44;5116633;27;45430;-42
2023/06/19 07:52:01;;;;;;;;;20.00;17.80;;;;;-143.57;100.00;65101.44;5115819;27;45453;-47
2023/06/19 07:54:26;;;;;;;;;22.50;17.25;;;;;-143.57;100.00;65101.44;5115610;27;45449;-44
2023/06/19 07:56:52;;;;;;;;;19.50;17.00;;;;;-143.57;100.00;65101.44;5115457;27;45411;-44
2023/06/19 07:59:17;;;;;;;;;18.50;16.00;;;;;-143.57;100.00;65101.44;5093764;27;45386;-43
2023/06/19 08:01:43;;;;;;;;;17.75;17.75;;;;;-143.57;100.00;65101.44;5095377;27;45671;-42
2023/06/19 08:04:09;;;;;;;;;22.60;18.80;;;;;-143.57;100.00;65101.44;5095513;27;45813;-43
2023/06/19 08:06:34;;;;;;;;;17.50;17.00;;;;;-143.57;100.00;65101.44;5095169;27;45411;-45
2023/06/19 08:08:59;;;;;;;;;17.50;16.75;;;;;-143.57;100.00;65101.44;5095409;27;46359;-44
2023/06/19 08:11:24;;;;;;;;;20.50;18.25;;;;;-143.57;100.00;65101.44;5096801;27;46321;-41
2023/06/19 08:13:50;;;;;;;;;15.00;14.75;;;;;-143.57;100.00;65101.44;5106273;27;45368;-44
2023/06/19 08:16:15;;;;;;;;;20.75;17.00;;;;;-143.57;100.00;65101.44;5095559;27;45400;-45
2023/06/19 08:18:40;;;;;;;;;16.00;15.00;;;;;-143.57;100.00;65101.44;5094924;27;45402;-43
2023/06/19 08:21:06;;;;;;;;;12.75;12.00;;;;;-143.57;100.00;65101.44;5094951;27;45931;-42
2023/06/19 08:23:31;;;;;;;;;15.50;12.25;;;;;-143.57;100.00;65101.44;5095154;27;45495;-46
2023/06/19 08:25:57;;;;;;;;;11.25;10.25;;;;;-143.57;100.00;65101.44;5086983;27;45845;-43
2023/06/19 08:28:23;;;;;;;;;13.75;12.25;;;;;-143.57;100.00;65101.44;5096725;27;45458;-44
2023/06/19 08:30:48;;;;;;;;;15.00;12.60;;;;;-143.57;100.00;65101.44;5113923;27;45469;-44
2023/06/19 08:33:14;;;;;;;;;14.75;13.00;;;;;-143.57;100.00;65101.44;5110097;27;45349;-43
2023/06/19 08:35:40;;;;;;;;;12.00;12.00;;;;;-143.57;100.00;65101.44;5095154;27;45424;-43
2023/06/19 08:38:06;;;;;;;;;12.75;11.25;;;;;-143.57;100.00;65101.44;5095149;27;45688;-44
2023/06/19 08:40:31;;;;;;;;;15.25;13.00;;;;;-143.57;100.00;65101.44;5082794;27;46740;-42
2023/06/19 08:42:56;;;;;;;;;13.25;11.25;;;;;-143.57;100.00;65101.44;5096886;27;45446;-44
2023/06/19 08:45:22;;;;;;;;;14.25;12.00;;;;;-143.57;100.00;65101.44;5093571;27;45548;-42
2023/06/19 08:47:48;;;;;;;;;12.00;12.00;;;;;-143.57;100.00;65101.44;5094604;27;45457;-42
2023/06/19 08:50:15;;;;;;;;;13.80;9.80;;;;;-143.57;100.00;65101.44;5094390;27;46086;-44
2023/06/19 08:52:41;;;;;;;;;12.80;11.00;;;;;-143.57;100.00;65101.44;5094668;27;45475;-42
2023/06/19 08:55:06;;;;;;;;;12.50;10.75;;;;;-143.57;100.00;65101.44;5095877;27;45942;-45
2023/06/19 08:57:39;;;;;;;;;9.50;8.75;;;;;-143.57;100.00;65101.44;5115033;27;45470;-43
2023/06/19 09:00:06;;;;;;;;;10.80;9.60;;;;;-143.57;100.00;65101.44;5114236;27;45893;-42
2023/06/19 09:02:41;;;;;;;;;9.60;8.80;;;;;-143.57;100.00;65101.44;5114362;27;45490;-43
2023/06/19 09:05:15;;;;;;;;;9.00;8.00;;;;;-143.57;100.00;65101.44;5114587;27;45408;-43
2023/06/19 09:07:40;;;;;;;;;10.00;10.00;;;;;-143.57;100.00;65101.44;5115499;27;45376;-43
2023/06/19 09:10:13;;;;;;;;;13.25;9.25;;;;;-143.57;100.00;65101.44;5114530;27;45844;-44
2023/06/19 09:12:39;;;;;;;;;13.00;11.40;;;;;-143.57;100.00;65101.44;5114012;27;45458;-44
2023/06/19 09:15:12;;;;;;;;;12.25;10.00;;;;;-143.57;100.00;65101.44;5115214;27;45457;-43
2023/06/19 09:17:39;;;;;;;;;9.80;9.60;;;;;-143.57;100.00;65101.44;5114889;27;45396;-43
2023/06/19 09:20:05;;;;;;;;;10.20;7.80;;;;;-143.57;100.00;65101.44;5114124;27;45551;-45
2023/06/19 09:22:31;;;;;;;;;9.20;8.20;;;;;-143.57;100.00;65101.44;5092357;27;45485;-45
2023/06/19 09:25:01;;;;;;;;;13.50;11.00;;;;;-143.57;100.00;65101.44;5094165;27;45650;-49
2023/06/19 09:27:32;;;;;;;;;9.00;8.00;;;;;-143.57;100.00;65101.44;5093609;27;45535;-44
2023/06/19 09:29:58;;;;;;;;;14.60;13.20;;;;;-143.57;100.00;65101.44;5094512;27;45981;-42
2023/06/19 09:32:26;;;;;;;;;11.25;9.75;;;;;-143.57;100.00;65101.44;5093390;27;45586;-44
2023/06/19 09:34:54;;;;;;;;;11.80;11.60;;;;;-143.57;100.00;65101.44;5075847;27;45487;-45
2023/06/19 09:37:24;;;;;;;;;8.80;8.20;;;;;-143.57;100.00;65101.44;5094841;27;45340;-43
2023/06/19 09:39:57;;;;;;;;;11.80;10.60;;;;;-143.57;100.00;65101.44;5094234;27;45916;-42
2023/06/19 09:42:33;;;;;;;;;7.80;7.80;;;;;-143.57;100.00;65101.44;5094210;27;46423;-42
2023/06/19 09:45:01;;;;;;;;;10.20;8.60;;;;;-143.57;100.00;65101.44;5099841;27;46571;-44
2023/06/19 09:47:31;;;;;;;;;8.80;8.00;;;;;-143.57;100.00;65101.44;5086205;27;45478;-44
2023/06/19 09:49:57;;;;;;;;;9.60;8.20;;;;;-143.57;100.00;65101.44;5093875;27;45587;-43
2023/06/19 09:52:23;;;;;;;;;9.50;9.50;;;;;-143.57;100.00;65101.44;5094446;27;45314;-44
2023/06/19 09:54:54;;;;;;;;;8.00;6.20;;;;;-143.57;100.00;65101.44;5075899;27;45381;-44
2023/06/19 09:57:20;;;;;;;;;7.60;7.20;;;;;-143.57;100.00;65101.44;5094243;27;45454;-44
2023/06/19 09:59:56;;;;;;;;;11.00;8.50;;;;;-143.57;100.00;65101.44;5093793;27;46055;-43
2023/06/19 10:02:22;;;;;;;;;8.20;5.40;;;;;-143.57;100.00;65101.44;5092684;27;45479;-45
2023/06/19 10:04:53;;;;;;;;;9.00;7.60;;;;;-143.57;100.00;65101.44;5093756;27;45419;-42
2023/06/19 10:07:34;;;;;;;;;14.60;10.00;;;;;-143.57;100.00;65101.44;5094308;27;45447;-44
2023/06/19 10:10:08;;;;;;;;;6.60;6.40;;;;;-143.57;100.00;65101.44;5093911;27;46577;-42
2023/06/19 10:12:38;;;;;;;;;8.80;8.80;;;;;-143.57;100.00;65101.44;5093254;27;45411;-43
2023/06/19 10:15:10;;;;;;;;;16.80;10.60;;;;;-143.57;100.00;65101.44;5093715;27;45777;-43
2023/06/19 10:17:36;;;;;;;;;12.00;10.60;;;;;-143.57;100.00;65101.44;5114359;27;45399;-41
2023/06/19 10:20:03;;;;;;;;;8.25;7.00;;;;;-143.57;100.00;65101.44;5096312;27;45185;-43
2023/06/19 10:22:31;;;;;;;;;9.20;7.00;;;;;-143.57;100.00;65101.44;5097196;27;45292;-42
2023/06/19 10:24:56;;;;;;;;;9.40;7.60;;;;;-143.57;100.00;65101.44;5078841;27;45491;-42
2023/06/19 10:27:25;;;;;;;;;7.50;7.50;;;;;-143.57;100.00;65101.44;5096808;27;45499;-42
2023/06/19 10:29:54;;;;;;;;;7.00;6.60;;;;;-143.57;100.00;65101.44;5096798;27;45363;-43
2023/06/19 10:32:20;;;;;;;;;7.20;7.20;;;;;-143.57;100.00;65101.44;5097193;27;45275;-42
2023/06/19 10:34:48;;;;;;;;;9.60;8.80;;;;;-143.57;100.00;65101.44;5096831;27;45409;-42
2023/06/19 10:37:16;;;;;;;;;8.60;8.00;;;;;-143.57;100.00;65101.44;5097184;27;45366;-43
2023/06/19 10:39:43;;;;;;;;;10.40;8.20;;;;;-143.57;100.00;65101.44;5096781;27;47498;-41
2023/06/19 10:42:09;;;;;;;;;8.60;8.60;;;;;-143.57;100.00;65101.44;5096856;27;45594;-42
2023/06/19 10:44:36;;;;;;;;;9.00;7.80;;;;;-143.57;100.00;65101.44;5099475;27;45405;-42
2023/06/19 10:47:02;;;;;;;;;7.60;7.60;;;;;-143.57;100.00;65101.44;5100366;27;45438;-44
2023/06/19 10:49:28;;;;;;;;;1.25;0.25;;;;;-143.57;100.00;65101.44;5100181;27;46756;-43
2023/06/19 10:51:58;;;;;;;;;9.50;9.00;;;;;-143.57;100.00;65101.44;5100337;27;45878;-43
2023/06/19 10:54:27;;;;;;;;;8.80;8.80;;;;;-143.57;100.00;65101.44;5100269;27;45442;-41
2023/06/19 10:56:52;;;;;;;;;6.60;6.60;;;;;-143.57;100.00;65101.44;5100648;27;45307;-42